createdAt,value
2019-03-25T00:01:33.981Z,78.28
2019-03-25T00:04:06.470Z,77.87
2019-03-25T00:06:38.753Z,78.41
2019-03-25T00:09:11.688Z,78.25
2019-03-25T00:11:44.270Z,77.28
2019-03-25T00:14:16.560Z,76.96
2019-03-25T00:16:49.179Z,77.07
2019-03-25T00:19:21.469Z,77.29
2019-03-25T00:21:54.310Z,77.79
2019-03-25T00:24:37.998Z,78.41
2019-03-25T00:27:00.943Z,78.28
2019-03-25T00:29:33.212Z,78.62
2019-03-25T00:32:05.470Z,78.85
2019-03-25T00:34:39.188Z,79.59
2019-03-25T00:37:11.971Z,80.39
2019-03-25T00:39:44.322Z,80.80
2019-03-25T00:42:16.713Z,80.79
2019-03-25T00:44:49.173Z,80.96
2019-03-25T00:47:21.307Z,80.45
2019-03-25T00:49:53.764Z,80.97
2019-03-25T00:52:26.054Z,81.21
2019-03-25T00:54:58.123Z,80.77
2019-03-25T00:57:30.489Z,80.42
2019-03-25T01:00:02.767Z,80.68
2019-03-25T01:02:35.672Z,79.94
2019-03-25T01:05:08.632Z,79.34
2019-03-25T01:07:41.295Z,79.47
2019-03-25T01:10:14.053Z,78.84
2019-03-25T01:12:46.269Z,79.49
2019-03-25T01:15:18.661Z,79.07
2019-03-25T01:17:50.925Z,79.23
2019-03-25T01:20:23.309Z,79.56
2019-03-25T01:22:56.233Z,80.39
2019-03-25T01:25:28.674Z,80.63
2019-03-25T01:28:00.995Z,81.24
2019-03-25T01:30:33.787Z,81.46
2019-03-25T01:33:06.285Z,81.59
2019-03-25T01:35:38.464Z,81.69
2019-03-25T01:38:10.660Z,81.53
2019-03-25T01:40:43.990Z,81.36
2019-03-25T01:43:16.323Z,80.29
2019-03-25T01:45:48.909Z,79.83
2019-03-25T01:48:20.996Z,79.72
2019-03-25T01:50:53.301Z,79.48
2019-03-25T01:53:25.505Z,79.08
2019-03-25T01:55:57.733Z,78.54
2019-03-25T01:58:29.947Z,78.36
2019-03-25T02:01:02.742Z,78.00
2019-03-25T02:03:34.863Z,78.01
2019-03-25T02:06:07.123Z,77.68
2019-03-25T02:08:39.345Z,77.59
2019-03-25T02:11:12.780Z,77.68
2019-03-25T02:13:44.974Z,77.39
2019-03-25T02:16:17.558Z,77.20
2019-03-25T02:18:50.058Z,77.12
2019-03-25T02:21:22.349Z,77.21
2019-03-25T02:23:54.686Z,77.02
2019-03-25T02:26:26.874Z,76.75
2019-03-25T02:28:59.145Z,76.61
2019-03-25T02:31:31.516Z,76.59
2019-03-25T02:34:03.891Z,76.31
2019-03-25T02:36:36.445Z,76.70
2019-03-25T02:39:08.947Z,76.49
2019-03-25T02:41:41.229Z,75.88
2019-03-25T02:44:13.463Z,75.62
2019-03-25T02:46:45.741Z,75.64
2019-03-25T02:49:18.109Z,75.52
2019-03-25T02:51:50.268Z,75.26
2019-03-25T02:54:22.469Z,75.66
2019-03-25T02:56:54.735Z,75.60
2019-03-25T02:59:27.016Z,75.58
2019-03-25T03:01:59.249Z,76.20
2019-03-25T03:04:32.726Z,76.83
2019-03-25T03:07:05.318Z,77.10
2019-03-25T03:09:37.720Z,77.02
2019-03-25T03:12:10.089Z,76.85
2019-03-25T03:14:42.327Z,77.57
2019-03-25T03:17:14.614Z,77.30
2019-03-25T03:19:46.656Z,77.80
2019-03-25T03:22:20.005Z,77.81
2019-03-25T03:24:52.233Z,77.85
2019-03-25T03:27:24.618Z,78.40
2019-03-25T03:29:56.811Z,77.91
2019-03-25T03:32:29.215Z,78.00
2019-03-25T03:35:01.585Z,78.09
2019-03-25T03:37:33.752Z,78.24
2019-03-25T03:40:06.608Z,78.25
2019-03-25T03:42:39.515Z,78.14
2019-03-25T03:45:12.420Z,78.18
2019-03-25T03:47:44.583Z,78.12
2019-03-25T03:50:26.991Z,77.86
2019-03-25T03:52:59.134Z,78.42
2019-03-25T03:55:34.816Z,77.75
2019-03-25T03:58:07.647Z,77.86
2019-03-25T04:00:39.889Z,77.79
2019-03-25T04:03:12.329Z,77.86
2019-03-25T04:05:44.526Z,77.39
2019-03-25T04:08:16.732Z,76.64
2019-03-25T04:10:48.854Z,74.12
2019-03-25T04:13:21.625Z,72.71
2019-03-25T04:15:54.601Z,71.54
2019-03-25T04:18:26.853Z,71.49
2019-03-25T04:20:59.201Z,72.21
2019-03-25T04:23:31.693Z,72.13
2019-03-25T04:26:04.031Z,71.75
2019-03-25T04:28:36.389Z,70.98
2019-03-25T04:31:08.465Z,71.16
2019-03-25T04:33:40.706Z,70.76
2019-03-25T04:36:12.872Z,70.33
2019-03-25T04:38:45.054Z,69.99
2019-03-25T04:41:17.203Z,69.19
2019-03-25T04:43:49.540Z,69.71
2019-03-25T04:46:21.606Z,69.59
2019-03-25T04:48:53.719Z,70.06
2019-03-25T04:51:25.931Z,70.68
2019-03-25T04:53:58.142Z,71.05
2019-03-25T04:56:39.016Z,71.38
2019-03-25T04:59:05.524Z,71.42
2019-03-25T05:01:37.750Z,70.53
2019-03-25T05:04:09.888Z,70.60
2019-03-25T05:06:42.034Z,70.44
2019-03-25T05:09:14.532Z,70.56
2019-03-25T05:11:46.938Z,70.59
2019-03-25T05:14:18.942Z,70.38
2019-03-25T05:16:50.895Z,70.01
2019-03-25T05:19:22.947Z,70.06
2019-03-25T05:21:54.945Z,70.29
2019-03-25T05:24:27.134Z,70.71
2019-03-25T05:26:59.460Z,70.42
2019-03-25T05:29:31.641Z,70.31
2019-03-25T05:32:03.804Z,70.10
2019-03-25T05:34:35.927Z,70.24
2019-03-25T05:37:08.047Z,70.25
2019-03-25T05:39:40.102Z,70.46
2019-03-25T05:42:12.522Z,70.23
2019-03-25T05:44:44.493Z,71.03
2019-03-25T05:47:17.785Z,71.07
2019-03-25T05:49:49.911Z,69.93
2019-03-25T05:52:21.920Z,69.29
2019-03-25T05:54:54.050Z,68.60
2019-03-25T05:57:26.035Z,67.87
2019-03-25T05:59:58.194Z,67.22
2019-03-25T06:02:30.445Z,66.99
2019-03-25T06:05:02.669Z,67.62
2019-03-25T06:07:34.766Z,66.90
2019-03-25T06:10:07.624Z,65.88
2019-03-25T06:12:39.591Z,64.55
2019-03-25T06:15:12.303Z,63.87
2019-03-25T06:17:44.559Z,62.64
2019-03-25T06:20:17.103Z,61.52
2019-03-25T06:22:49.072Z,61.09
2019-03-25T06:25:21.438Z,60.35
2019-03-25T06:27:53.524Z,60.47
2019-03-25T06:30:25.770Z,59.79
2019-03-25T06:32:57.920Z,59.86
2019-03-25T06:35:29.985Z,60.21
2019-03-25T06:38:02.391Z,58.41
2019-03-25T06:40:35.737Z,58.78
2019-03-25T06:43:08.328Z,58.80
2019-03-25T06:45:40.775Z,58.35
2019-03-25T06:48:12.817Z,57.30
2019-03-25T06:50:44.861Z,57.37
2019-03-25T06:53:17.045Z,56.76
2019-03-25T06:55:49.098Z,55.92
2019-03-25T06:58:21.665Z,57.57
2019-03-25T07:00:54.169Z,56.57
2019-03-25T07:03:26.245Z,55.51
2019-03-25T07:05:58.411Z,55.70
2019-03-25T07:08:30.812Z,56.21
2019-03-25T07:11:03.130Z,55.39
2019-03-25T07:13:35.584Z,56.71
2019-03-25T07:16:08.147Z,55.61
2019-03-25T07:18:40.343Z,53.56
2019-03-25T07:21:13.384Z,55.39
2019-03-25T07:23:45.607Z,54.19
2019-03-25T07:26:17.841Z,55.57
2019-03-25T07:28:49.882Z,55.28
2019-03-25T07:31:22.063Z,53.89
2019-03-25T07:33:54.517Z,55.38
2019-03-25T07:36:26.808Z,54.81
2019-03-25T07:39:00.232Z,54.86
2019-03-25T07:41:32.519Z,55.31
2019-03-25T07:44:04.740Z,55.56
2019-03-25T07:46:36.725Z,55.11
2019-03-25T07:49:08.795Z,53.50
2019-03-25T07:51:40.907Z,51.77
2019-03-25T07:54:13.237Z,54.14
2019-03-25T07:56:45.857Z,53.60
2019-03-25T07:59:20.094Z,51.34
2019-03-25T08:01:52.211Z,50.74
2019-03-25T08:04:24.200Z,48.17
2019-03-25T08:06:56.258Z,49.23
2019-03-25T08:09:28.495Z,47.91
2019-03-25T08:12:00.961Z,47.99
2019-03-25T08:14:33.237Z,48.52
2019-03-25T08:17:05.722Z,48.29
2019-03-25T08:19:37.800Z,49.91
2019-03-25T08:22:09.946Z,49.45
2019-03-25T08:24:42.081Z,49.11
2019-03-25T08:27:14.287Z,48.19
2019-03-25T08:29:46.343Z,48.83
2019-03-25T08:32:18.685Z,49.69
2019-03-25T08:34:50.864Z,47.71
2019-03-25T08:37:23.171Z,48.28
2019-03-25T08:39:55.551Z,47.84
2019-03-25T08:42:27.768Z,47.07
2019-03-25T08:44:59.739Z,46.54
2019-03-25T08:47:32.304Z,46.29
2019-03-25T08:50:04.491Z,44.65
2019-03-25T08:52:39.839Z,45.54
2019-03-25T08:55:11.100Z,45.01
2019-03-25T08:57:43.521Z,44.39
2019-03-25T09:00:17.046Z,44.59
2019-03-25T09:02:49.154Z,43.81
2019-03-25T09:05:21.645Z,44.31
2019-03-25T09:07:53.871Z,45.62
2019-03-25T09:10:26.064Z,45.46
2019-03-25T09:12:58.270Z,46.59
2019-03-25T09:15:30.591Z,45.19
2019-03-25T09:18:02.722Z,45.90
2019-03-25T09:20:34.935Z,44.75
2019-03-25T09:23:07.471Z,43.91
2019-03-25T09:25:39.555Z,42.71
2019-03-25T09:28:23.757Z,43.39
2019-03-25T09:31:22.330Z,43.02
2019-03-25T09:33:55.836Z,40.32
2019-03-25T09:36:28.151Z,40.67
2019-03-25T09:39:00.296Z,41.77
2019-03-25T09:41:32.554Z,42.40
2019-03-25T09:44:05.238Z,43.76
2019-03-25T09:46:37.310Z,44.52
2019-03-25T09:49:09.588Z,46.29
2019-03-25T09:51:41.846Z,46.92
2019-03-25T09:54:14.339Z,47.39
2019-03-25T09:56:46.582Z,47.92
2019-03-25T09:59:18.759Z,46.99
2019-03-25T10:01:50.843Z,48.08
2019-03-25T10:04:22.940Z,48.50
2019-03-25T10:06:55.180Z,50.64
2019-03-25T10:09:27.333Z,51.43
2019-03-25T10:11:59.757Z,51.24
2019-03-25T10:14:31.764Z,51.21
2019-03-25T10:17:04.125Z,51.06
2019-03-25T10:19:36.857Z,50.70
2019-03-25T10:22:09.136Z,51.31
2019-03-25T10:24:41.136Z,51.29
2019-03-25T10:27:13.732Z,51.25
2019-03-25T10:29:46.059Z,52.10
2019-03-25T10:32:19.380Z,51.99
2019-03-25T10:34:51.379Z,51.80
2019-03-25T10:37:23.546Z,52.06
2019-03-25T10:39:55.789Z,51.65
2019-03-25T10:42:27.896Z,50.51
2019-03-25T10:45:00.389Z,52.06
2019-03-25T10:47:32.855Z,51.87
2019-03-25T10:50:05.705Z,50.50
2019-03-25T10:52:37.845Z,51.36
2019-03-25T10:55:11.017Z,52.62
2019-03-25T10:57:43.290Z,56.39
2019-03-25T11:00:16.343Z,57.56
2019-03-25T11:02:48.547Z,55.89
2019-03-25T11:05:20.741Z,52.43
2019-03-25T11:07:52.885Z,49.90
2019-03-25T11:10:25.390Z,47.87
2019-03-25T11:12:57.851Z,45.80
2019-03-25T11:15:30.101Z,45.78
2019-03-25T11:18:02.159Z,44.83
2019-03-25T11:20:34.573Z,45.83
2019-03-25T11:23:06.807Z,47.69
2019-03-25T11:25:39.098Z,46.79
2019-03-25T11:28:12.291Z,47.83
2019-03-25T11:30:54.659Z,48.29
2019-03-25T11:33:27.272Z,49.26
2019-03-25T11:35:59.962Z,48.88
2019-03-25T11:38:32.273Z,50.58
2019-03-25T11:41:04.573Z,51.93
2019-03-25T11:43:36.647Z,53.73
2019-03-25T11:46:08.857Z,59.40
2019-03-25T11:48:41.263Z,60.84
2019-03-25T11:51:13.411Z,61.13
2019-03-25T11:53:45.615Z,57.35
2019-03-25T11:56:17.727Z,53.22
2019-03-25T11:58:49.781Z,51.46
2019-03-25T12:01:21.918Z,52.38
2019-03-25T12:03:54.043Z,56.53
2019-03-25T12:06:26.262Z,60.08
2019-03-25T12:08:58.518Z,64.90
2019-03-25T12:11:30.886Z,63.36
2019-03-25T12:14:03.082Z,63.00
2019-03-25T12:16:35.328Z,61.01
2019-03-25T12:19:07.835Z,60.77
2019-03-25T12:21:40.166Z,60.46
2019-03-25T12:24:12.240Z,59.99
2019-03-25T12:26:44.496Z,60.41
2019-03-25T12:29:16.734Z,60.69
2019-03-25T12:31:49.038Z,60.54
2019-03-25T12:34:21.620Z,59.82
2019-03-25T12:36:53.982Z,59.19
2019-03-25T12:39:26.108Z,57.20
2019-03-25T12:41:58.275Z,52.31
2019-03-25T12:44:30.422Z,50.21
2019-03-25T12:47:03.253Z,50.51
2019-03-25T12:49:35.828Z,52.44
2019-03-25T12:52:08.240Z,53.02
2019-03-25T12:54:40.276Z,53.79
2019-03-25T12:57:12.321Z,54.40
2019-03-25T12:59:44.514Z,53.75
2019-03-25T13:02:16.598Z,53.61
2019-03-25T13:04:48.734Z,54.19
2019-03-25T13:07:20.785Z,51.73
2019-03-25T13:09:52.847Z,50.81
2019-03-25T13:12:25.337Z,46.09
2019-03-25T13:14:57.402Z,45.27
2019-03-25T13:17:29.628Z,44.33
2019-03-25T13:20:01.775Z,46.21
2019-03-25T13:22:34.083Z,48.42
2019-03-25T13:25:06.713Z,46.96
2019-03-25T13:27:38.882Z,44.37
2019-03-25T13:30:13.038Z,42.24
2019-03-25T13:32:45.846Z,44.39
2019-03-25T13:35:17.947Z,44.18
2019-03-25T13:37:50.933Z,47.37
2019-03-25T13:40:23.169Z,49.56
2019-03-25T13:42:55.446Z,50.46
2019-03-25T13:45:27.725Z,50.91
2019-03-25T13:47:59.788Z,50.14
2019-03-25T13:50:31.885Z,51.68
2019-03-25T13:53:04.347Z,50.19
2019-03-25T13:55:36.388Z,50.30
2019-03-25T13:58:08.429Z,51.73
2019-03-25T14:00:44.211Z,50.49
2019-03-25T14:03:16.744Z,45.61
2019-03-25T14:05:48.913Z,41.65
2019-03-25T14:08:21.556Z,44.45
2019-03-25T14:10:53.754Z,43.78
2019-03-25T14:13:26.606Z,40.70
2019-03-25T14:15:59.098Z,43.37
2019-03-25T14:18:31.160Z,43.92
2019-03-25T14:21:03.282Z,45.42
2019-03-25T14:23:35.383Z,44.37
2019-03-25T14:26:07.695Z,43.37
2019-03-25T14:28:39.778Z,43.17
2019-03-25T14:31:11.826Z,53.17
2019-03-25T14:33:43.879Z,60.05
2019-03-25T14:36:15.924Z,62.39
2019-03-25T14:38:48.322Z,64.81
2019-03-25T14:41:20.486Z,67.36
2019-03-25T14:43:52.539Z,69.00
2019-03-25T14:46:24.783Z,69.40
2019-03-25T14:48:56.903Z,72.57
2019-03-25T14:51:29.719Z,76.38
2019-03-25T14:54:01.786Z,76.69
2019-03-25T14:56:34.191Z,77.68
2019-03-25T14:59:06.574Z,76.33
2019-03-25T15:01:38.625Z,76.71
2019-03-25T15:04:11.038Z,76.96
2019-03-25T15:06:43.097Z,76.93
2019-03-25T15:09:15.323Z,75.68
2019-03-25T15:11:47.859Z,70.90
2019-03-25T15:14:19.934Z,70.69
2019-03-25T15:16:52.088Z,67.45
2019-03-25T15:19:24.507Z,68.47
2019-03-25T15:21:56.858Z,67.88
2019-03-25T15:24:29.383Z,71.73
2019-03-25T15:27:01.826Z,72.51
2019-03-25T15:29:33.978Z,72.00
2019-03-25T15:32:06.231Z,70.97
2019-03-25T15:34:38.720Z,71.71
2019-03-25T15:37:10.853Z,72.95
2019-03-25T15:39:46.951Z,73.60
2019-03-25T15:42:18.673Z,73.52
2019-03-25T15:44:50.669Z,72.40
2019-03-25T15:47:23.202Z,70.04
2019-03-25T15:49:55.173Z,67.99
2019-03-25T15:52:27.410Z,66.04
2019-03-25T15:54:59.636Z,65.88
2019-03-25T15:57:31.798Z,67.16
2019-03-25T16:00:04.195Z,67.28
2019-03-25T16:02:36.874Z,67.70
2019-03-25T16:05:09.079Z,68.11
2019-03-25T16:07:41.465Z,67.83
2019-03-25T16:10:16.364Z,67.20
2019-03-25T16:12:49.015Z,63.91
2019-03-25T16:15:42.407Z,62.15
2019-03-25T16:18:39.622Z,61.90
2019-03-25T16:21:12.537Z,60.23
2019-03-25T16:23:44.803Z,59.96
2019-03-25T16:26:16.785Z,59.12
2019-03-25T16:28:48.835Z,58.89
2019-03-25T16:31:20.989Z,59.72
2019-03-25T16:33:54.467Z,60.77
2019-03-25T16:36:26.816Z,63.38
2019-03-25T16:38:58.955Z,65.04
2019-03-25T16:41:31.011Z,65.78
2019-03-25T16:44:04.249Z,67.31
2019-03-25T16:46:36.665Z,66.86
2019-03-25T16:49:08.899Z,66.53
2019-03-25T16:51:41.041Z,67.04
2019-03-25T16:54:14.034Z,65.56
2019-03-25T16:56:46.080Z,63.99
2019-03-25T16:59:19.456Z,64.75
2019-03-25T17:01:51.638Z,65.54
2019-03-25T17:04:24.656Z,67.33
2019-03-25T17:06:56.901Z,70.26
2019-03-25T17:09:29.699Z,72.24
2019-03-25T17:12:01.951Z,72.89
2019-03-25T17:14:34.114Z,73.79
2019-03-25T17:17:06.240Z,75.63
2019-03-25T17:19:38.352Z,77.18
2019-03-25T17:22:10.507Z,76.00
2019-03-25T17:24:42.562Z,75.37
2019-03-25T17:27:14.660Z,75.96
2019-03-25T17:29:46.626Z,75.35
2019-03-25T17:32:18.667Z,75.17
2019-03-25T17:34:50.714Z,74.84
2019-03-25T17:37:22.759Z,74.18
2019-03-25T17:39:55.076Z,73.34
2019-03-25T17:42:27.198Z,72.94
2019-03-25T17:44:59.744Z,73.49
2019-03-25T17:47:31.888Z,72.58
2019-03-25T17:50:04.629Z,73.58
2019-03-25T17:52:37.847Z,72.68
2019-03-25T17:55:10.507Z,73.53
2019-03-25T17:57:43.129Z,74.94
2019-03-25T18:00:17.573Z,74.94
2019-03-25T18:02:49.666Z,74.75
2019-03-25T18:05:21.969Z,74.33
2019-03-25T18:07:54.352Z,74.74
2019-03-25T18:10:26.428Z,75.02
2019-03-25T18:12:59.047Z,75.61
2019-03-25T18:15:31.411Z,76.53
2019-03-25T18:18:03.496Z,76.42
2019-03-25T18:20:36.147Z,77.30
2019-03-25T18:23:08.790Z,78.35
2019-03-25T18:25:41.568Z,78.88
2019-03-25T18:28:14.090Z,79.06
2019-03-25T18:30:46.325Z,79.68
2019-03-25T18:33:18.458Z,79.34
2019-03-25T18:35:50.827Z,78.92
2019-03-25T18:38:23.214Z,78.46
2019-03-25T18:40:55.343Z,79.09
2019-03-25T18:43:27.637Z,78.80
2019-03-25T18:45:59.756Z,79.13
2019-03-25T18:48:31.847Z,79.96
2019-03-25T18:51:04.297Z,79.58
2019-03-25T18:53:36.652Z,79.45
2019-03-25T18:56:09.783Z,79.81
2019-03-25T18:58:42.102Z,79.41
2019-03-25T19:01:14.609Z,79.36
2019-03-25T19:03:46.703Z,81.01
2019-03-25T19:06:19.011Z,81.51
2019-03-25T19:08:52.566Z,81.63
2019-03-25T19:11:31.021Z,82.02
2019-03-25T19:13:58.436Z,82.05
2019-03-25T19:16:30.490Z,81.68
2019-03-25T19:19:03.000Z,82.30
2019-03-25T19:21:35.149Z,83.08
2019-03-25T19:24:07.586Z,82.92
2019-03-25T19:26:39.649Z,83.60
2019-03-25T19:29:12.087Z,83.59
2019-03-25T19:31:44.241Z,84.34
2019-03-25T19:34:16.425Z,84.01
2019-03-25T19:36:48.475Z,84.65
2019-03-25T19:39:20.827Z,85.42
2019-03-25T19:41:53.007Z,85.53
2019-03-25T19:44:25.456Z,84.67
2019-03-25T19:46:57.658Z,84.40
2019-03-25T19:49:30.126Z,83.77
2019-03-25T19:52:02.772Z,83.90
2019-03-25T19:54:34.995Z,82.11
2019-03-25T19:57:07.277Z,81.77
2019-03-25T19:59:39.310Z,81.21
2019-03-25T20:02:18.802Z,81.17
2019-03-25T20:04:45.299Z,80.72
2019-03-25T20:07:17.452Z,81.28
2019-03-25T20:09:49.672Z,81.11
2019-03-25T20:12:21.601Z,80.59
2019-03-25T20:14:54.058Z,80.34
2019-03-25T20:17:26.609Z,80.18
2019-03-25T20:19:58.694Z,81.83
2019-03-25T20:22:31.266Z,82.28
2019-03-25T20:25:03.534Z,81.56
2019-03-25T20:27:35.834Z,82.13
2019-03-25T20:30:08.865Z,81.94
2019-03-25T20:32:40.989Z,82.39
2019-03-25T20:35:13.312Z,81.13
2019-03-25T20:37:45.556Z,82.54
2019-03-25T20:40:18.084Z,82.29
2019-03-25T20:42:50.324Z,81.48
2019-03-25T20:45:22.421Z,80.28
2019-03-25T20:47:54.375Z,81.90
2019-03-25T20:50:27.308Z,81.32
2019-03-25T20:53:00.879Z,81.39
2019-03-25T20:55:33.063Z,80.95
2019-03-25T20:58:05.289Z,81.65
2019-03-25T21:00:49.350Z,81.16
2019-03-25T21:03:22.828Z,80.57
2019-03-25T21:05:54.996Z,80.63
2019-03-25T21:08:27.576Z,81.41
2019-03-25T21:10:59.622Z,80.83
2019-03-25T21:13:31.721Z,81.10
2019-03-25T21:16:03.907Z,81.74
2019-03-25T21:18:35.982Z,82.15
2019-03-25T21:21:08.291Z,82.53
2019-03-25T21:23:40.417Z,83.25
2019-03-25T21:26:12.569Z,82.85
2019-03-25T21:28:44.722Z,83.39
2019-03-25T21:31:16.753Z,83.31
2019-03-25T21:33:48.778Z,82.57
2019-03-25T21:36:21.079Z,82.16
2019-03-25T21:38:53.090Z,82.54
2019-03-25T21:41:25.846Z,85.07
2019-03-25T21:43:57.961Z,84.88
2019-03-25T21:46:29.947Z,85.25
2019-03-25T21:49:02.331Z,85.24
2019-03-25T21:51:34.357Z,87.63
2019-03-25T21:54:06.536Z,87.11
2019-03-25T21:56:38.592Z,87.77
2019-03-25T21:59:10.778Z,88.06
2019-03-25T22:01:42.848Z,88.61
2019-03-25T22:04:15.261Z,88.64
2019-03-25T22:06:47.363Z,88.93
2019-03-25T22:09:19.400Z,88.65
2019-03-25T22:11:51.778Z,88.58
2019-03-25T22:14:23.745Z,87.26
2019-03-25T22:16:57.000Z,86.76
2019-03-25T22:19:29.068Z,86.01
2019-03-25T22:22:01.391Z,85.35
2019-03-25T22:24:33.615Z,86.71
2019-03-25T22:27:06.132Z,88.85
2019-03-25T22:29:38.205Z,88.64
2019-03-25T22:32:10.455Z,89.11
2019-03-25T22:34:42.528Z,89.54
2019-03-25T22:37:14.585Z,89.09
2019-03-25T22:39:46.815Z,89.14
2019-03-25T22:42:19.953Z,89.54
2019-03-25T22:44:52.025Z,88.82
2019-03-25T22:47:24.921Z,87.14
2019-03-25T22:49:57.037Z,86.89
2019-03-25T22:52:29.178Z,85.62
2019-03-25T22:55:01.234Z,84.64
2019-03-25T22:57:33.735Z,84.62
2019-03-25T23:00:06.988Z,84.51
2019-03-25T23:02:40.929Z,84.66
2019-03-25T23:05:13.174Z,84.17
2019-03-25T23:07:45.337Z,83.67
2019-03-25T23:10:17.839Z,83.39
2019-03-25T23:12:50.077Z,84.06
2019-03-25T23:15:22.170Z,83.44
2019-03-25T23:17:54.312Z,83.40
2019-03-25T23:20:26.341Z,82.58
2019-03-25T23:22:58.404Z,82.72
2019-03-25T23:25:30.412Z,82.58
2019-03-25T23:28:02.586Z,83.32
2019-03-25T23:30:34.753Z,83.40
2019-03-25T23:33:07.257Z,84.01
2019-03-25T23:35:39.480Z,84.62
2019-03-25T23:38:11.746Z,84.59
2019-03-25T23:40:43.910Z,84.88
2019-03-25T23:43:15.960Z,84.52
2019-03-25T23:45:48.260Z,84.57
2019-03-25T23:48:20.223Z,84.89
2019-03-25T23:50:52.362Z,85.81
2019-03-25T23:53:24.537Z,85.72
2019-03-25T23:55:56.589Z,86.48
2019-03-25T23:58:28.679Z,86.08
